Stolt Surf — ZCSR3 — position and weather

sailwx.info

Track history (hours):
 
Tides and Currents Weather Stations Pressure Air Temp Water Temp Dewpoint Dewpoint Depression Visibility Wind Speed Wind Dir Waves Ship Positions

Stolt Surf

Last reported at 2015-Aug-20 03:33 UTC. Time now 2015-Aug-29 23:36 UTC.
Position N 31°06' E 122°26'.
Warning: this ship's position is 9 days out of date.

Length 163 m; draft 10.2 m.

Type: Ship. MMSI: 319545000.

Date/timePositionNaut miles runAvg speedWind from/ knotsBaromVisibWave heightAir tempDewpointWater temp
2015-Aug-20 03:33N 31°06' E 122°26'9 8.8
2015-Aug-20 02:33N 31°07' E 122°16'1312.9
2015-Aug-20 01:33N 31°14' E 122°03'1514.8
2015-Aug-20 00:34N 31°18' E 121°47'1212.2
2015-Aug-19 23:33N 31°24' E 121°34'1111.0
2015-Aug-19 22:34N 31°30' E 121°24'5 5.3
2015-Aug-19 21:32N 31°34' E 121°19'0 0.1
2015-Aug-19 20:29N 31°34' E 121°19'0 0.0
2015-Aug-19 19:32N 31°34' E 121°19'0 0.0
2015-Aug-19 18:29N 31°34' E 121°19'0 0.0
2015-Aug-19 17:32N 31°34' E 121°19'0 0.2
2015-Aug-19 16:32N 31°34' E 121°20'0 0.0
2015-Aug-19 15:32N 31°34' E 121°20'0 0.0
2015-Aug-19 14:32N 31°34' E 121°20'0 0.0
2015-Aug-19 13:32N 31°34' E 121°20'0 0.1
2015-Aug-19 12:32N 31°34' E 121°20'8 8.2
2015-Aug-19 11:33N 31°40' E 121°13'1513.6
2015-Aug-19 10:29N 31°47' E 120°58'1111.9
2015-Aug-19 09:33N 31°57' E 120°52'1110.5
2015-Aug-19 08:32N 31°60' E 120°40'11 8.8
2015-Aug-19 07:16N 31°59' E 120°27'8 8.7
2015-Aug-19 06:24N 31°57' E 120°18'1010.1
2015-Aug-19 05:25N 31°57' E 120°06'1 0.1
2015-Aug-18 06:24N 31°57' E 120°08'16 8.6
2015-Aug-18 04:33N 31°58' E 120°26'2 6.5
2015-Aug-18 04:10N 32°01' E 120°27'1 7.5
2015-Aug-18 04:04N 32°02' E 120°27'5 7.8
2015-Aug-18 03:28N 32°01' E 120°32'8 9.1
2015-Aug-18 02:33N 32°00' E 120°42'9 8.8
2015-Aug-18 01:33N 31°57' E 120°52'1010.1
2015-Aug-18 00:33N 31°48' E 120°56'10 9.6
2015-Aug-17 23:33N 31°44' E 121°06'1010.3
2015-Aug-17 22:33N 31°38' E 121°15'6 5.8
2015-Aug-17 21:32N 31°34' E 121°20'0 0.2
2015-Aug-17 20:32N 31°34' E 121°20'0 0.1
2015-Aug-17 19:29N 31°34' E 121°20'0 0.0
2015-Aug-17 18:26N 31°34' E 121°20'0 0.0
2015-Aug-17 17:32N 31°34' E 121°20'0 0.0
2015-Aug-17 16:32N 31°34' E 121°20'0 0.2
2015-Aug-17 15:29N 31°34' E 121°20'0 0.0
2015-Aug-17 14:29N 31°34' E 121°20'0 0.0
2015-Aug-17 13:32N 31°34' E 121°20'0 0.0
2015-Aug-17 12:32N 31°34' E 121°20'0 0.0
2015-Aug-17 11:32N 31°34' E 121°20'0 0.0
2015-Aug-17 10:32N 31°34' E 121°20'0 0.1
2015-Aug-17 09:33N 31°34' E 121°20'8 8.2
2015-Aug-17 08:33N 31°28' E 121°27'9 8.9
2015-Aug-17 07:33N 31°23' E 121°36'9 9.0
2015-Aug-17 06:33N 31°19' E 121°45'1010.2
2015-Aug-17 05:33N 31°15' E 121°56'1110.7
2015-Aug-17 04:33N 31°12' E 122°08'10 9.8
2015-Aug-17 03:31N 31°06' E 122°18'84 3.6
2015-Aug-16 04:24N 29°42' E 122°24'1111.3
2015-Aug-16 03:24N 29°49' E 122°13'9 9.9
2015-Aug-16 02:30N 29°55' E 122°06'  
2015-Aug-12 07:29N 29°58' E 121°58'7 6.7
2015-Aug-12 06:29N 29°56' E 122°05'9 8.8
2015-Aug-12 05:29N 29°50' E 122°13'9 9.4
2015-Aug-12 04:33N 29°44' E 122°21'5 0.3
2015-Aug-11 11:33N 29°45' E 122°27'1110.7
2015-Aug-11 10:31N 29°41' E 122°39'  
Track history (hours):
 
Tides and Currents Weather Stations Pressure Air Temp Water Temp Dewpoint Dewpoint Depression Visibility Wind Speed Wind Dir Waves Ship Positions

Stolt Surf

Last reported at 2015-Aug-20 03:33 UTC. Time now 2015-Aug-29 23:36 UTC.
Position N 31°06' E 122°26'.
Warning: this ship's position is 9 days out of date.

Length 163 m; draft 10.2 m.

Type: Ship. MMSI: 319545000.

Date/timePositionNaut miles runAvg speedWind from/ knotsBaromVisibWave heightAir tempDewpointWater temp
2015-Aug-20 03:33N 31°06' E 122°26'9 8.8
2015-Aug-20 02:33N 31°07' E 122°16'1312.9
2015-Aug-20 01:33N 31°14' E 122°03'1514.8
2015-Aug-20 00:34N 31°18' E 121°47'1212.2
2015-Aug-19 23:33N 31°24' E 121°34'1111.0
2015-Aug-19 22:34N 31°30' E 121°24'5 5.3
2015-Aug-19 21:32N 31°34' E 121°19'0 0.1
2015-Aug-19 20:29N 31°34' E 121°19'0 0.0
2015-Aug-19 19:32N 31°34' E 121°19'0 0.0
2015-Aug-19 18:29N 31°34' E 121°19'0 0.0
2015-Aug-19 17:32N 31°34' E 121°19'0 0.2
2015-Aug-19 16:32N 31°34' E 121°20'0 0.0
2015-Aug-19 15:32N 31°34' E 121°20'0 0.0
2015-Aug-19 14:32N 31°34' E 121°20'0 0.0
2015-Aug-19 13:32N 31°34' E 121°20'0 0.1
2015-Aug-19 12:32N 31°34' E 121°20'8 8.2
2015-Aug-19 11:33N 31°40' E 121°13'1513.6
2015-Aug-19 10:29N 31°47' E 120°58'1111.9
2015-Aug-19 09:33N 31°57' E 120°52'1110.5
2015-Aug-19 08:32N 31°60' E 120°40'11 8.8
2015-Aug-19 07:16N 31°59' E 120°27'8 8.7
2015-Aug-19 06:24N 31°57' E 120°18'1010.1
2015-Aug-19 05:25N 31°57' E 120°06'1 0.1
2015-Aug-18 06:24N 31°57' E 120°08'16 8.6
2015-Aug-18 04:33N 31°58' E 120°26'2 6.5
2015-Aug-18 04:10N 32°01' E 120°27'1 7.5
2015-Aug-18 04:04N 32°02' E 120°27'5 7.8
2015-Aug-18 03:28N 32°01' E 120°32'8 9.1
2015-Aug-18 02:33N 32°00' E 120°42'9 8.8
2015-Aug-18 01:33N 31°57' E 120°52'1010.1
2015-Aug-18 00:33N 31°48' E 120°56'10 9.6
2015-Aug-17 23:33N 31°44' E 121°06'1010.3
2015-Aug-17 22:33N 31°38' E 121°15'6 5.8
2015-Aug-17 21:32N 31°34' E 121°20'0 0.2
2015-Aug-17 20:32N 31°34' E 121°20'0 0.1
2015-Aug-17 19:29N 31°34' E 121°20'0 0.0
2015-Aug-17 18:26N 31°34' E 121°20'0 0.0
2015-Aug-17 17:32N 31°34' E 121°20'0 0.0
2015-Aug-17 16:32N 31°34' E 121°20'0 0.2
2015-Aug-17 15:29N 31°34' E 121°20'0 0.0
2015-Aug-17 14:29N 31°34' E 121°20'0 0.0
2015-Aug-17 13:32N 31°34' E 121°20'0 0.0
2015-Aug-17 12:32N 31°34' E 121°20'0 0.0
2015-Aug-17 11:32N 31°34' E 121°20'0 0.0
2015-Aug-17 10:32N 31°34' E 121°20'0 0.1
2015-Aug-17 09:33N 31°34' E 121°20'8 8.2
2015-Aug-17 08:33N 31°28' E 121°27'9 8.9
2015-Aug-17 07:33N 31°23' E 121°36'9 9.0
2015-Aug-17 06:33N 31°19' E 121°45'1010.2
2015-Aug-17 05:33N 31°15' E 121°56'1110.7
2015-Aug-17 04:33N 31°12' E 122°08'10 9.8
2015-Aug-17 03:31N 31°06' E 122°18'84 3.6
2015-Aug-16 04:24N 29°42' E 122°24'1111.3
2015-Aug-16 03:24N 29°49' E 122°13'9 9.9
2015-Aug-16 02:30N 29°55' E 122°06'  
2015-Aug-12 07:29N 29°58' E 121°58'7 6.7
2015-Aug-12 06:29N 29°56' E 122°05'9 8.8
2015-Aug-12 05:29N 29°50' E 122°13'9 9.4
2015-Aug-12 04:33N 29°44' E 122°21'5 0.3
2015-Aug-11 11:33N 29°45' E 122°27'1110.7
2015-Aug-11 10:31N 29°41' E 122°39'  

Dump ship's entire track history